Time;durP1;ratioP1;P1;durP2;ratioP2;P2;SDS_P1;SDS_P2;PMS_P1;PMS_P2;Temp;Humidity;BMP_temperature;BMP_pressure;BME280_temperature;BME280_humidity;BME280_pressure;Samples;Min_cycle;Max_cycle;Signal;HPM_P1;HPM_P2
2022/01/30 00:02:56;;;;;;;17.57;3.33;;;;;;;5.23;98.36;99108.72;3537699;81;98879;-94
2022/01/30 00:08:10;;;;;;;19.73;4.15;;;;;;;5.28;97.87;99095.31;3513767;83;98498;-94
2022/01/30 00:13:15;;;;;;;23.00;5.10;;;;;;;5.32;97.96;99098.30;3484513;83;98091;-96
2022/01/30 00:23:26;;;;;;;22.93;4.97;;;;;;;5.33;92.48;99075.88;3514520;83;84777;-96
2022/01/30 00:28:33;;;;;;;15.27;4.13;;;;;;;5.38;92.79;99068.73;3540486;81;98229;-95
2022/01/30 00:33:34;;;;;;;17.85;3.58;;;;;;;5.38;92.25;99078.27;3516264;82;97711;-89
2022/01/30 00:38:35;;;;;;;17.47;3.13;;;;;;;5.42;92.87;99072.28;3503358;82;99005;-93
2022/01/30 00:43:36;;;;;;;15.17;2.87;;;;;;;5.43;92.76;99067.82;3522559;83;32118;-96
2022/01/30 00:48:37;;;;;;;17.53;3.00;;;;;;;5.46;90.09;99047.95;3515396;81;98218;-96
2022/01/30 00:53:38;;;;;;;16.73;3.10;;;;;;;5.46;89.02;99064.33;3473570;83;98492;-95
2022/01/30 00:58:39;;;;;;;13.17;2.70;;;;;;;5.47;88.66;99058.30;3449629;83;99052;-93
2022/01/30 01:03:40;;;;;;;14.47;3.50;;;;;;;5.49;88.60;99062.23;3463374;84;97757;-95
2022/01/30 01:08:50;;;;;;;18.73;2.87;;;;;;;5.42;87.42;99041.70;3456745;81;98534;-96
2022/01/30 01:24:16;;;;;;;12.55;2.35;;;;;;;5.32;88.46;99015.11;3467216;83;98367;-96
2022/01/30 01:29:18;;;;;;;14.00;2.40;;;;;;;5.35;86.96;99009.48;3454578;80;98559;-95
2022/01/30 01:39:29;;;;;;;16.45;3.20;;;;;;;5.37;87.59;99003.06;3456953;81;98189;-96
2022/01/30 01:44:40;;;;;;;25.05;6.35;;;;;;;5.35;87.86;98997.98;3554729;81;98896;-95
2022/01/30 01:49:39;;;;;;;12.37;3.90;;;;;;;5.33;87.40;99017.23;3461647;82;98297;-93
2022/01/30 01:54:40;;;;;;;12.63;2.70;;;;;;;5.30;88.84;99017.41;3463907;81;98419;-96
2022/01/30 01:59:41;;;;;;;16.97;4.20;;;;;;;5.26;88.54;99031.62;3539403;81;98068;-94
2022/01/30 02:04:43;;;;;;;16.40;3.10;;;;;;;5.23;89.84;99038.41;3544247;81;98593;-96
2022/01/30 02:09:44;;;;;;;10.17;2.27;;;;;;;5.14;92.13;99035.95;3471104;82;98534;-96
2022/01/30 02:15:06;;;;;;;15.18;3.58;;;;;;;4.92;93.41;99036.89;3468678;82;98525;-94
2022/01/30 02:30:33;;;;;;;15.58;3.10;;;;;;;4.61;94.92;98963.77;3531314;81;98293;-96
2022/01/30 02:35:30;;;;;;;16.30;3.20;;;;;;;4.55;95.03;98972.06;3529091;81;98901;-93
2022/01/30 02:40:36;;;;;;;19.27;3.40;;;;;;;4.55;94.87;98967.19;3464879;82;98113;-96
2022/01/30 02:45:37;;;;;;;12.75;2.70;;;;;;;4.55;95.74;98974.79;3486457;81;98508;-96
2022/01/30 02:50:50;;;;;;;10.78;2.20;;;;;;;4.46;98.47;99012.98;3484037;83;98255;-96
2022/01/30 02:55:39;;;;;;;21.05;3.15;;;;;;;4.30;99.34;98981.07;3476628;83;33160;-94
2022/01/30 03:00:40;;;;;;;15.63;2.47;;;;;;;4.17;99.59;98945.16;3487787;83;98456;-93
2022/01/30 03:05:41;;;;;;;16.10;3.20;;;;;;;4.09;99.76;98941.34;3515872;83;98338;-96
2022/01/30 03:10:42;;;;;;;13.33;2.90;;;;;;;4.02;99.96;98948.84;3516832;83;98554;-94
2022/01/30 03:15:43;;;;;;;15.57;3.57;;;;;;;4.03;100.00;98977.63;3496870;83;98484;-95
2022/01/30 03:20:44;;;;;;;15.20;2.60;;;;;;;4.03;100.00;98976.82;3502366;83;98941;-92
2022/01/30 03:25:45;;;;;;;9.17;2.43;;;;;;;3.98;100.00;98967.05;3499283;83;32542;-95
2022/01/30 03:30:48;;;;;;;14.87;2.40;;;;;;;3.99;100.00;98956.96;3515587;83;98181;-93
2022/01/30 03:35:49;;;;;;;13.83;2.50;;;;;;;4.01;100.00;98945.12;3531207;83;99018;-94
2022/01/30 03:40:50;;;;;;;12.40;1.77;;;;;;;4.01;100.00;98929.59;3527899;82;98615;-95
2022/01/30 03:45:51;;;;;;;14.00;2.13;;;;;;;4.02;100.00;98948.05;3507473;83;98717;-93
2022/01/30 03:50:52;;;;;;;16.23;2.93;;;;;;;4.06;100.00;98942.08;3510288;83;98684;-96
2022/01/30 03:55:53;;;;;;;15.30;4.07;;;;;;;4.14;99.17;98964.17;3526984;83;31153;-94
2022/01/30 04:00:54;;;;;;;13.60;2.42;;;;;;;4.22;98.41;98939.38;3512132;82;98562;-93
2022/01/30 04:05:55;;;;;;;17.05;2.33;;;;;;;4.22;98.88;98905.34;3525122;83;97683;-96
2022/01/30 04:10:56;;;;;;;21.05;3.05;;;;;;;4.16;98.18;98917.70;3517968;83;98587;-91
2022/01/30 04:15:57;;;;;;;14.97;3.03;;;;;;;4.19;97.39;98880.78;3519489;83;98995;-94
2022/01/30 04:20:58;;;;;;;21.00;5.20;;;;;;;4.24;96.72;98868.99;3536244;82;98119;-95
2022/01/30 04:25:59;;;;;;;15.13;4.10;;;;;;;4.28;96.20;98862.22;3518995;83;34828;-93
2022/01/30 04:31:01;;;;;;;15.47;2.77;;;;;;;4.29;95.16;98867.30;3509370;83;98069;-93
2022/01/30 04:36:07;;;;;;;17.87;2.70;;;;;;;4.35;94.34;98869.89;3520072;83;97982;-92
2022/01/30 04:52:08;;;;;;;13.20;2.67;;;;;;;4.36;95.00;98843.45;3514300;82;98236;-96
2022/01/30 04:57:19;;;;;;;10.00;1.65;;;;;;;4.35;94.68;98833.13;3518952;83;99013;-94
2022/01/30 05:12:18;;;;;;;11.75;2.10;;;;;;;4.27;96.68;98794.72;3519021;82;98800;-95
2022/01/30 05:17:20;;;;;;;13.78;2.45;;;;;;;4.29;96.92;98802.52;3521942;82;98817;-96
2022/01/30 05:22:22;;;;;;;17.10;3.55;;;;;;;4.33;96.37;98773.39;3509401;83;98076;-96
2022/01/30 05:27:23;;;;;;;13.72;2.35;;;;;;;4.33;96.10;98771.45;3513853;82;97697;-96
2022/01/30 05:32:25;;;;;;;13.93;2.63;;;;;;;4.33;96.23;98754.33;3518827;81;105709;-93
2022/01/30 05:37:26;;;;;;;18.37;3.60;;;;;;;4.32;96.49;98767.14;3517694;83;31236;-92
2022/01/30 05:42:28;;;;;;;13.53;3.20;;;;;;;4.28;97.10;98743.20;3550108;82;99076;-96
2022/01/30 05:47:32;;;;;;;16.52;3.52;;;;;;;4.23;97.96;98745.48;3494870;83;99015;-95
2022/01/30 05:52:33;;;;;;;17.90;3.25;;;;;;;4.17;98.28;98742.33;3536413;81;98141;-94
2022/01/30 05:57:34;;;;;;;18.93;3.50;;;;;;;4.08;99.54;98760.11;3507445;82;98926;-94
2022/01/30 06:02:36;;;;;;;19.30;4.07;;;;;;;4.01;100.00;98775.81;3476078;83;99015;-93
2022/01/30 06:07:46;;;;;;;15.37;2.80;;;;;;;3.90;100.00;98769.47;3478485;83;35284;-96
2022/01/30 06:12:40;;;;;;;24.92;3.42;;;;;;;3.83;100.00;98770.73;3515513;82;98330;-95
2022/01/30 06:17:42;;;;;;;16.37;2.77;;;;;;;3.78;100.00;98755.34;3540467;81;98753;-96
2022/01/30 06:22:44;;;;;;;11.53;2.45;;;;;;;3.77;100.00;98764.06;3522636;82;98717;-94
2022/01/30 06:27:44;;;;;;;18.73;3.00;;;;;;;3.76;100.00;98750.27;3535104;80;99230;-96
2022/01/30 06:32:45;;;;;;;17.37;2.87;;;;;;;3.73;100.00;98759.19;3532727;81;98513;-94
2022/01/30 06:37:46;;;;;;;19.30;3.27;;;;;;;3.65;100.00;98776.56;3477713;83;34741;-96
2022/01/30 06:42:47;;;;;;;19.87;2.72;;;;;;;3.52;100.00;98814.68;3536012;82;98544;-93
2022/01/30 06:47:48;;;;;;;19.30;3.40;;;;;;;3.38;100.00;98810.41;3534544;82;98580;-96
2022/01/30 06:52:49;;;;;;;14.30;2.50;;;;;;;3.24;100.00;98824.38;3491208;82;99047;-96
2022/01/30 06:57:50;;;;;;;16.50;2.80;;;;;;;3.14;100.00;98823.65;3554096;82;98748;-96
2022/01/30 07:02:55;;;;;;;18.17;3.75;;;;;;;3.06;100.00;98812.48;3528303;81;98693;-96
2022/01/30 07:08:00;;;;;;;15.10;3.30;;;;;;;3.01;100.00;98835.30;3537224;81;32214;-96
2022/01/30 07:13:14;;;;;;;19.60;4.97;;;;;;;3.00;100.00;98831.02;3539940;81;98077;-96
2022/01/30 07:18:12;;;;;;;17.30;3.17;;;;;;;3.01;100.00;98839.97;3529458;81;98487;-96
2022/01/30 07:23:13;;;;;;;14.00;3.17;;;;;;;3.05;100.00;98834.78;3537860;81;98347;-93
2022/01/30 07:28:21;;;;;;;12.13;3.57;;;;;;;3.08;100.00;98834.63;3521413;82;98228;-92
2022/01/30 07:33:22;;;;;;;14.23;1.90;;;;;;;3.09;100.00;98858.73;3525123;82;98756;-96
2022/01/30 07:38:24;;;;;;;7.30;2.15;;;;;;;3.17;100.00;98869.91;3526229;81;98215;-91
2022/01/30 07:43:25;;;;;;;14.85;2.58;;;;;;;3.19;100.00;98870.34;3522682;82;97642;-94
2022/01/30 07:48:26;;;;;;;12.20;2.63;;;;;;;3.23;100.00;98879.31;3516102;81;98175;-94
2022/01/30 07:53:27;;;;;;;14.60;3.13;;;;;;;3.34;100.00;98890.36;3529620;82;98994;-95
2022/01/30 07:58:28;;;;;;;18.47;3.47;;;;;;;3.42;100.00;98894.17;3523206;82;99221;-95
2022/01/30 08:03:29;;;;;;;13.55;2.90;;;;;;;3.49;100.00;98890.78;3538171;82;98997;-95
2022/01/30 08:08:32;;;;;;;20.70;3.73;;;;;;;3.55;100.00;98910.48;3517176;82;98524;-96
2022/01/30 08:13:33;;;;;;;11.73;2.33;;;;;;;3.62;100.00;98916.59;3528929;82;98273;-96
2022/01/30 08:18:38;;;;;;;12.60;3.17;;;;;;;3.66;100.00;98902.48;3521461;82;108445;-95
2022/01/30 08:23:39;;;;;;;24.27;4.62;;;;;;;3.69;100.00;98915.33;3529129;82;98817;-96
2022/01/30 08:28:40;;;;;;;26.48;4.17;;;;;;;3.73;100.00;98910.73;3530822;81;98644;-96
2022/01/30 08:33:42;;;;;;;23.70;3.90;;;;;;;3.76;100.00;98907.28;3518527;82;98093;-94
2022/01/30 08:38:42;;;;;;;25.37;6.07;;;;;;;3.81;100.00;98902.86;3518789;81;98302;-93
2022/01/30 08:43:45;;;;;;;23.23;5.67;;;;;;;3.87;100.00;98917.14;3526946;82;34797;-95
2022/01/30 08:48:46;;;;;;;26.27;5.87;;;;;;;3.98;100.00;98920.78;3526923;81;98932;-95
2022/01/30 08:53:56;;;;;;;23.77;5.43;;;;;;;4.06;100.00;98910.21;3529340;81;98657;-87
2022/01/30 08:58:58;;;;;;;25.40;5.40;;;;;;;4.13;100.00;98909.48;3670006;78;98680;-86
2022/01/30 09:04:03;;;;;;;28.73;6.57;;;;;;;4.21;100.00;98920.69;3672206;78;98646;-86
2022/01/30 09:09:04;;;;;;;23.20;4.90;;;;;;;4.26;100.00;98930.66;3659901;78;98798;-87
2022/01/30 09:14:07;;;;;;;23.27;4.60;;;;;;;4.31;100.00;98935.01;3664001;78;28844;-87
2022/01/30 09:19:08;;;;;;;24.02;6.58;;;;;;;4.35;100.00;98966.56;3662645;78;98508;-89
2022/01/30 09:24:09;;;;;;;27.60;5.10;;;;;;;4.34;100.00;98984.63;3666178;78;99031;-87
2022/01/30 09:29:09;;;;;;;19.37;4.73;;;;;;;4.33;100.00;98998.05;3667948;78;99100;-86
2022/01/30 09:34:10;;;;;;;22.90;4.43;;;;;;;4.32;100.00;99006.02;3669089;78;98950;-89
2022/01/30 09:39:11;;;;;;;19.80;4.67;;;;;;;4.34;100.00;99024.12;3659638;78;98745;-89
2022/01/30 09:44:12;;;;;;;19.93;4.87;;;;;;;4.33;100.00;99026.08;3667646;78;35168;-88
2022/01/30 09:49:14;;;;;;;23.77;5.30;;;;;;;4.36;100.00;99038.94;3669083;78;98905;-86
2022/01/30 09:54:15;;;;;;;23.20;4.40;;;;;;;4.38;100.00;99060.36;3653436;78;99209;-87
2022/01/30 09:59:16;;;;;;;19.40;4.30;;;;;;;4.39;100.00;99075.55;3652233;78;98768;-87
2022/01/30 10:04:17;;;;;;;20.27;5.00;;;;;;;4.37;100.00;99107.81;3659247;78;99029;-86
2022/01/30 10:09:29;;;;;;;15.82;4.26;;;;;;;4.35;100.00;99101.94;3658539;78;98930;-88
2022/01/30 10:14:30;;;;;;;26.73;5.62;;;;;;;4.33;100.00;99134.20;3675495;78;35286;-94
2022/01/30 10:19:31;;;;;;;23.20;4.57;;;;;;;4.32;100.00;99130.69;3655977;78;98649;-90
2022/01/30 10:24:40;;;;;;;24.18;5.28;;;;;;;4.35;100.00;99149.03;3664281;78;98538;-93
2022/01/30 10:29:41;;;;;;;26.25;5.15;;;;;;;4.38;100.00;99155.12;3659717;78;98853;-95
2022/01/30 10:34:44;;;;;;;22.50;5.37;;;;;;;4.41;100.00;99177.52;3655055;78;98694;-92
2022/01/30 10:40:17;;;;;;;21.52;4.67;;;;;;;4.42;100.00;99183.17;3650848;78;98794;-89
2022/01/30 10:45:31;;;;;;;23.65;4.70;;;;;;;4.44;100.00;99203.24;3664917;78;99047;-92
2022/01/30 10:50:37;;;;;;;18.55;4.17;;;;;;;4.47;100.00;99209.33;3659325;78;98690;-95
2022/01/30 10:55:44;;;;;;;28.05;4.22;;;;;;;4.50;100.00;99225.73;3667823;78;98950;-89
2022/01/30 11:00:58;;;;;;;22.10;4.42;;;;;;;4.54;100.00;99234.72;3644402;78;98767;-88
2022/01/30 11:06:01;;;;;;;29.80;4.95;;;;;;;4.63;100.00;99252.20;3673071;78;98607;-88
2022/01/30 11:11:19;;;;;;;23.18;3.87;;;;;;;4.66;100.00;99260.44;3647807;78;98670;-89
2022/01/30 11:21:36;;;;;;;21.97;4.20;;;;;;;4.84;100.00;99275.11;3644599;78;98781;-87
2022/01/30 11:26:38;;;;;;;22.22;4.85;;;;;;;4.96;100.00;99294.57;3678445;78;34640;-89
2022/01/30 11:31:40;;;;;;;29.00;5.35;;;;;;;5.06;100.00;99306.19;3654509;78;98665;-88
2022/01/30 11:36:44;;;;;;;26.60;5.45;;;;;;;5.13;100.00;99301.63;3664910;78;98504;-88
2022/01/30 11:42:14;;;;;;;26.85;5.80;;;;;;;5.20;100.00;99309.93;3656729;78;98935;-86
2022/01/30 11:47:20;;;;;;;23.87;4.95;;;;;;;5.30;100.00;99321.55;3677911;78;98734;-88
2022/01/30 11:52:41;;;;;;;;;;;;;;;5.38;99.76;99345.62;3661937;78;99246;-88
2022/01/30 11:57:45;;;;;;;26.80;6.20;;;;;;;5.45;98.32;99335.59;3647905;79;85056;-89
2022/01/30 12:02:46;;;;;;;27.55;4.92;;;;;;;5.53;98.12;99323.64;3617712;79;98354;-89
2022/01/30 12:07:48;;;;;;;19.33;4.60;;;;;;;5.61;96.63;99353.94;3660093;79;98794;-86
2022/01/30 12:12:59;;;;;;;22.30;3.98;;;;;;;5.68;95.97;99355.39;3657635;79;98345;-89
2022/01/30 12:18:01;;;;;;;16.67;3.40;;;;;;;5.76;93.79;99357.08;3637923;79;98906;-89
2022/01/30 12:23:02;;;;;;;20.62;4.42;;;;;;;5.83;92.54;99370.07;3639804;79;98972;-89
2022/01/30 12:28:07;;;;;;;25.00;6.77;;;;;;;5.89;93.74;99383.59;3657538;79;98452;-86
2022/01/30 12:33:37;;;;;;;18.82;4.55;;;;;;;5.91;92.86;99393.56;3628651;79;98914;-87
2022/01/30 12:38:39;;;;;;;20.40;5.97;;;;;;;5.93;92.98;99411.15;3621367;79;98370;-87
2022/01/30 12:43:40;;;;;;;21.00;5.37;;;;;;;5.95;92.60;99415.65;3650172;79;98801;-87
2022/01/30 12:48:40;;;;;;;15.63;4.03;;;;;;;5.97;90.62;99412.56;3636173;79;98904;-84
2022/01/30 12:53:42;;;;;;;20.83;4.83;;;;;;;5.97;91.36;99443.39;3657800;78;98939;-84
2022/01/30 12:58:46;;;;;;;18.07;4.03;;;;;;;5.99;91.76;99445.73;3677118;78;98891;-85
2022/01/30 13:04:02;;;;;;;19.45;4.85;;;;;;;6.00;89.35;99456.89;3677702;78;98961;-85
2022/01/30 13:09:04;;;;;;;17.30;4.25;;;;;;;5.99;89.60;99451.20;3595114;78;99016;-85
2022/01/30 13:14:08;;;;;;;16.67;3.67;;;;;;;5.96;89.32;99468.33;3681824;78;34637;-87
2022/01/30 13:19:13;;;;;;;22.20;3.80;;;;;;;5.94;88.87;99474.16;3675456;77;98784;-86
2022/01/30 13:24:19;;;;;;;19.92;3.83;;;;;;;5.92;88.63;99496.96;3685663;78;98998;-90
2022/01/30 13:29:21;;;;;;;82.72;29.50;;;;;;;5.90;88.14;99507.45;3656017;78;98537;-88
2022/01/30 13:34:29;;;;;;;19.87;3.75;;;;;;;5.90;88.39;99499.84;3669277;78;99030;-87
2022/01/30 13:39:47;;;;;;;21.70;4.20;;;;;;;5.89;87.48;99530.45;3685167;78;99277;-85
2022/01/30 13:44:52;;;;;;;17.73;4.22;;;;;;;5.89;87.52;99535.14;3679918;78;35587;-84
2022/01/30 13:49:54;;;;;;;18.15;4.05;;;;;;;5.87;87.21;99560.64;3657215;78;98589;-86
2022/01/30 13:55:00;;;;;;;15.08;3.50;;;;;;;5.85;87.14;99558.27;3666842;78;98801;-84
2022/01/30 14:00:15;;;;;;;10.88;2.85;;;;;;;5.84;86.58;99573.08;3649402;78;99057;-85
2022/01/30 14:05:39;;;;;;;15.15;3.15;;;;;;;5.83;86.84;99563.91;3644482;78;99115;-86
2022/01/30 14:10:43;;;;;;;19.32;4.60;;;;;;;5.83;85.99;99570.73;3625266;78;98481;-86
2022/01/30 14:16:05;;;;;;;12.53;2.67;;;;;;;5.84;84.88;99605.08;3662268;77;99008;-87
2022/01/30 14:21:18;;;;;;;18.67;4.07;;;;;;;5.82;85.47;99616.35;3652611;78;98992;-84
2022/01/30 14:26:28;;;;;;;12.60;3.15;;;;;;;5.81;84.42;99629.00;3662582;78;34685;-85
2022/01/30 14:31:29;;;;;;;20.95;4.90;;;;;;;5.80;84.69;99641.88;3656268;78;98804;-84
2022/01/30 14:36:31;;;;;;;18.07;3.90;;;;;;;5.81;85.37;99645.38;3664317;78;98334;-86
2022/01/30 14:41:33;;;;;;;13.98;4.28;;;;;;;5.78;84.75;99650.95;3638870;78;98871;-86
2022/01/30 14:46:34;;;;;;;23.45;5.08;;;;;;;5.78;84.40;99663.84;3650663;78;98891;-85
2022/01/30 14:51:36;;;;;;;14.17;3.77;;;;;;;5.75;84.91;99683.09;3661314;78;98909;-85
2022/01/30 14:56:37;;;;;;;15.83;3.80;;;;;;;5.72;84.85;99690.63;3657313;78;32867;-86
2022/01/30 15:01:38;;;;;;;25.63;11.63;;;;;;;5.70;83.62;99702.50;3664622;78;98415;-85
2022/01/30 15:06:39;;;;;;;32.13;10.97;;;;;;;5.66;84.15;99707.09;3672325;78;98905;-89
2022/01/30 15:11:40;;;;;;;19.30;5.43;;;;;;;5.65;84.06;99726.55;3646281;78;98707;-84
2022/01/30 15:16:43;;;;;;;17.90;4.00;;;;;;;5.60;83.89;99726.28;3680501;78;98869;-86
2022/01/30 15:21:45;;;;;;;15.83;3.93;;;;;;;5.56;83.11;99730.10;3659419;78;98927;-87
2022/01/30 15:26:46;;;;;;;11.73;3.08;;;;;;;5.52;83.86;99743.66;3676175;78;34762;-87
2022/01/30 15:31:48;;;;;;;14.70;3.07;;;;;;;5.48;83.92;99761.12;3663539;78;98740;-86
2022/01/30 15:36:51;;;;;;;14.78;3.90;;;;;;;5.43;82.64;99764.93;3664537;78;98861;-87
2022/01/30 15:41:54;;;;;;;12.53;2.85;;;;;;;5.41;82.97;99774.03;3663190;78;99217;-86
2022/01/30 15:52:15;;;;;;;14.35;3.10;;;;;;;5.35;82.42;99806.84;3632914;78;98759;-87
2022/01/30 15:57:18;;;;;;;11.20;2.43;;;;;;;5.31;81.58;99823.73;3651426;78;98890;-86
2022/01/30 16:02:18;;;;;;;19.42;3.95;;;;;;;5.29;81.91;99826.59;3662003;78;97953;-87
2022/01/30 16:07:20;;;;;;;12.40;2.47;;;;;;;5.26;82.26;99856.73;3656182;77;98865;-88
2022/01/30 16:17:42;;;;;;;14.65;3.17;;;;;;;5.20;81.05;99864.98;3498369;83;99037;-87
2022/01/30 16:22:45;;;;;;;13.23;2.97;;;;;;;5.20;80.74;99859.52;3602415;78;98851;-85
2022/01/30 16:27:46;;;;;;;19.23;3.02;;;;;;;5.20;80.81;99886.00;3674008;78;98567;-88
2022/01/30 16:32:48;;;;;;;11.73;2.50;;;;;;;5.19;80.62;99888.52;3637712;78;98267;-85
2022/01/30 16:37:49;;;;;;;17.50;3.60;;;;;;;5.17;80.62;99918.86;3652626;78;98747;-90
2022/01/30 16:42:50;;;;;;;16.77;2.98;;;;;;;5.14;80.02;99911.38;3658307;78;98557;-88
2022/01/30 16:48:00;;;;;;;13.97;2.90;;;;;;;5.12;80.23;99905.49;3654430;78;98539;-90
2022/01/30 16:53:00;;;;;;;14.00;2.50;;;;;;;5.08;79.40;99911.42;3650451;78;98862;-84
2022/01/30 16:58:03;;;;;;;11.97;4.03;;;;;;;5.08;79.84;99921.56;3642980;78;98865;-85
2022/01/30 17:03:04;;;;;;;11.30;2.92;;;;;;;5.06;80.24;99937.47;3646258;78;98548;-86
2022/01/30 17:08:05;;;;;;;15.23;3.30;;;;;;;5.04;78.91;99935.67;3648233;78;32236;-87
2022/01/30 17:13:07;;;;;;;13.70;3.40;;;;;;;5.03;80.04;99934.09;3617912;78;98379;-86
2022/01/30 17:18:12;;;;;;;15.87;3.50;;;;;;;5.01;80.16;99952.72;3638389;78;98465;-85
2022/01/30 17:23:14;;;;;;;14.57;3.20;;;;;;;5.00;80.61;99964.78;3643701;78;98584;-87
2022/01/30 17:28:16;;;;;;;17.73;4.10;;;;;;;4.98;80.61;99956.17;3642190;78;98604;-85
2022/01/30 17:33:17;;;;;;;15.85;3.30;;;;;;;4.96;80.03;99957.88;3650187;78;98961;-87
2022/01/30 17:38:18;;;;;;;12.25;2.98;;;;;;;4.95;80.40;99969.13;3666026;78;33486;-88
2022/01/30 17:43:19;;;;;;;16.40;2.93;;;;;;;4.92;80.47;99976.66;3649941;78;98229;-87
2022/01/30 17:48:20;;;;;;;17.57;4.23;;;;;;;4.90;80.83;99976.20;3650629;78;98830;-89
2022/01/30 17:53:21;;;;;;;15.40;4.10;;;;;;;4.87;81.05;99979.09;3659123;78;98566;-88
2022/01/30 17:58:22;;;;;;;19.37;3.67;;;;;;;4.84;81.23;99985.78;3635524;79;98596;-89
2022/01/30 18:03:24;;;;;;;14.37;3.57;;;;;;;4.80;81.26;100006.73;3649227;79;98392;-89
2022/01/30 18:08:25;;;;;;;22.70;4.77;;;;;;;4.77;81.10;99998.67;3641770;79;99121;-85
2022/01/30 18:13:26;;;;;;;22.93;3.97;;;;;;;4.74;81.41;100019.80;3642560;79;98354;-85
2022/01/30 18:18:29;;;;;;;27.43;4.33;;;;;;;4.71;81.54;100021.07;3646978;79;98631;-87
2022/01/30 18:23:43;;;;;;;19.03;4.87;;;;;;;4.66;82.08;100030.30;3648088;79;98600;-87
2022/01/30 18:28:44;;;;;;;23.90;4.80;;;;;;;4.62;81.71;100033.48;3635004;79;98673;-85
2022/01/30 18:33:46;;;;;;;29.33;5.57;;;;;;;4.57;82.11;100041.09;3644747;79;98832;-85
2022/01/30 18:43:51;;;;;;;16.82;4.25;;;;;;;4.50;82.32;100055.89;3664036;79;98813;-87
2022/01/30 18:48:52;;;;;;;23.80;5.00;;;;;;;4.46;82.37;100063.16;3653477;79;98590;-92
2022/01/30 18:53:53;;;;;;;20.23;4.17;;;;;;;4.41;82.32;100064.77;3658918;79;98690;-87
2022/01/30 18:58:54;;;;;;;24.83;4.53;;;;;;;4.37;82.84;100072.83;3662200;77;99237;-88
2022/01/30 19:03:55;;;;;;;22.10;4.50;;;;;;;4.33;83.21;100078.77;3679180;78;99311;-88
2022/01/30 19:08:56;;;;;;;26.68;4.47;;;;;;;4.29;83.23;100093.40;3664144;78;98631;-88
2022/01/30 19:13:59;;;;;;;24.13;5.37;;;;;;;4.25;83.23;100095.24;3667914;78;98654;-88
2022/01/30 19:19:00;;;;;;;20.17;5.28;;;;;;;4.21;83.57;100076.05;3680764;78;98745;-87
2022/01/30 19:24:02;;;;;;;18.27;4.53;;;;;;;4.16;83.88;100093.97;3669617;78;98646;-86
2022/01/30 19:29:03;;;;;;;22.20;5.37;;;;;;;4.12;83.89;100095.02;3638169;78;99822;-87
2022/01/30 19:34:04;;;;;;;23.00;5.15;;;;;;;4.08;83.93;100103.62;3671400;78;98679;-86
2022/01/30 19:39:05;;;;;;;22.07;5.73;;;;;;;4.03;84.17;100099.22;3669443;78;98573;-87
2022/01/30 19:44:08;;;;;;;26.67;5.53;;;;;;;4.01;84.15;100108.86;3682997;78;32314;-87
2022/01/30 19:49:08;;;;;;;25.68;5.03;;;;;;;3.97;84.33;100109.30;3665423;78;98491;-87
2022/01/30 19:54:10;;;;;;;23.47;4.90;;;;;;;3.93;84.32;100111.92;3678986;78;98436;-88
2022/01/30 19:59:13;;;;;;;26.27;5.10;;;;;;;3.87;84.30;100103.76;3645104;78;99322;-89
2022/01/30 20:04:14;;;;;;;23.98;5.35;;;;;;;3.84;84.27;100107.17;3635154;79;98974;-86
2022/01/30 20:09:15;;;;;;;27.90;5.40;;;;;;;3.80;84.18;100115.78;3648582;79;98912;-88
2022/01/30 20:14:24;;;;;;;25.80;4.70;;;;;;;3.76;84.26;100110.01;3652352;79;32243;-86
2022/01/30 20:19:22;;;;;;;29.27;4.90;;;;;;;3.71;84.54;100112.95;3621100;75;98457;-87
2022/01/30 20:24:24;;;;;;;22.30;3.90;;;;;;;3.67;84.73;100108.73;3590209;80;98616;-88
2022/01/30 20:29:29;;;;;;;22.85;4.25;;;;;;;3.64;84.77;100126.30;3589886;80;99026;-87
2022/01/30 20:34:30;;;;;;;16.15;4.20;;;;;;;3.58;85.07;100118.94;3592931;80;98658;-86
2022/01/30 20:39:31;;;;;;;18.97;3.50;;;;;;;3.53;85.26;100120.52;3588986;80;98846;-86
2022/01/30 20:44:32;;;;;;;19.17;3.90;;;;;;;3.49;85.17;100115.52;3594550;80;33155;-85
2022/01/30 20:49:33;;;;;;;18.23;4.40;;;;;;;3.45;85.21;100119.25;3530630;82;98759;-85
2022/01/30 20:54:33;;;;;;;21.53;4.83;;;;;;;3.35;85.13;100116.41;3602372;80;98437;-84
2022/01/30 20:59:35;;;;;;;25.07;4.83;;;;;;;3.27;85.42;100114.55;3595491;80;99556;-85
2022/01/30 21:04:36;;;;;;;20.50;4.33;;;;;;;3.19;85.45;100114.65;3611601;80;99302;-84
2022/01/30 21:09:40;;;;;;;19.87;4.17;;;;;;;3.13;85.53;100112.72;3599562;80;99396;-83
2022/01/30 21:14:41;;;;;;;26.90;4.67;;;;;;;3.06;85.62;100123.32;3607577;80;98767;-84
2022/01/30 21:19:42;;;;;;;25.83;5.53;;;;;;;3.01;85.75;100120.81;3623045;80;98598;-83
2022/01/30 21:24:43;;;;;;;24.13;4.10;;;;;;;2.94;85.64;100122.47;3643353;80;98464;-81
2022/01/30 21:29:44;;;;;;;24.53;5.00;;;;;;;2.85;85.69;100125.27;3638368;80;99566;-83
2022/01/30 21:34:44;;;;;;;20.53;4.50;;;;;;;2.79;85.63;100125.24;3649520;80;98565;-84
2022/01/30 21:39:48;;;;;;;15.40;4.17;;;;;;;2.74;85.94;100124.66;3561879;81;98718;-84
2022/01/30 21:44:52;;;;;;;21.87;5.83;;;;;;;2.66;86.16;100123.61;3559530;81;99037;-87
2022/01/30 21:49:52;;;;;;;23.70;4.70;;;;;;;2.59;86.29;100120.62;3637961;80;98913;-84
2022/01/30 21:54:54;;;;;;;25.37;5.77;;;;;;;2.53;86.28;100119.24;3644398;80;99108;-84
2022/01/30 21:59:55;;;;;;;22.13;4.83;;;;;;;2.48;86.52;100124.87;3641891;79;98401;-89
2022/01/30 22:04:59;;;;;;;25.03;6.03;;;;;;;2.41;86.73;100117.79;3625128;80;98627;-91
2022/01/30 22:10:08;;;;;;;21.27;5.00;;;;;;;2.36;86.78;100115.84;3646913;80;98171;-92
2022/01/30 22:15:07;;;;;;;19.50;3.45;;;;;;;2.30;87.03;100134.23;3625842;80;34604;-94
2022/01/30 22:20:10;;;;;;;14.73;3.87;;;;;;;2.24;87.17;100130.12;3646599;79;98429;-89
2022/01/30 22:30:17;;;;;;;22.07;4.90;;;;;;;2.19;87.59;100141.75;3572715;79;57895;-88
2022/01/30 22:35:17;;;;;;;;;;;;;;;2.14;87.71;100143.30;3470462;83;98727;-93
2022/01/30 22:40:24;;;;;;;17.93;5.10;;;;;;;2.08;88.02;100134.53;3519114;81;84753;-89
2022/01/30 22:45:27;;;;;;;22.93;3.87;;;;;;;2.03;88.07;100129.87;3537138;81;35209;-86
2022/01/30 22:50:34;;;;;;;20.27;3.60;;;;;;;1.99;88.28;100144.66;3537837;81;98850;-87
2022/01/30 22:56:07;;;;;;;19.80;3.20;;;;;;;1.94;88.44;100126.39;3544160;81;98637;-91
2022/01/30 23:01:17;;;;;;;16.95;4.53;;;;;;;1.88;88.60;100119.56;3458416;83;98711;-87
2022/01/30 23:11:23;;;;;;;20.43;3.55;;;;;;;1.78;89.07;100134.30;3504024;82;98667;-88
2022/01/30 23:16:24;;;;;;;17.63;3.30;;;;;;;1.74;89.08;100144.74;3581133;81;98651;-87
2022/01/30 23:21:27;;;;;;;21.17;3.67;;;;;;;1.70;89.40;100135.69;3589068;81;98152;-87
2022/01/30 23:26:32;;;;;;;20.85;4.67;;;;;;;1.65;89.47;100146.13;3576562;79;98829;-86
2022/01/30 23:31:36;;;;;;;18.10;5.70;;;;;;;1.61;89.73;100138.44;3558977;80;98760;-86
2022/01/30 23:36:37;;;;;;;20.37;5.10;;;;;;;1.57;89.89;100134.77;3554734;81;98662;-86
2022/01/30 23:41:45;;;;;;;18.53;4.50;;;;;;;1.57;90.00;100127.99;3556096;81;98617;-85
2022/01/30 23:46:40;;;;;;;23.18;4.55;;;;;;;1.56;90.13;100125.59;3551778;81;98721;-86
2022/01/30 23:51:41;;;;;;;21.80;4.43;;;;;;;1.54;90.20;100119.13;3552443;81;32945;-86
2022/01/30 23:56:42;;;;;;;14.90;3.27;;;;;;;1.49;90.43;100115.82;3531114;81;99593;-85
